Newburgh, IN (47630)

7:28 AM CST on December 15, 2019 (GMT -0600)
Happy Acres | | Change Station
Active Advisory: Winter Weather Advisory

Elev 397 ft 37.96 °N, 87.38 °W | Updated 3 minutes ago

Mostly Cloudy
Mostly Cloudy
28.7 °F
Feels Like 29 °F
N
0
Wind Variable Wind from NE
Gusts 3.0 mph

Today
High -- | Low -- °F
--% Chance of Precip.
Yesterday
High -- | Low -- °F
Precip. -- in
Pressure 30.12 in
Visibility 10.0 miles
Clouds Few 2100 ft
Scattered Clouds 11000 ft
Windchill 29 °F
Dew Point 6 °F
Humidity 38%
Rainfall 0.00 in
Snow Depth Not available.
6:58 AM 4:31 PM
Waning Gibbous, 87% visible
METAR KEVV 151254Z 00000KT 10SM FEW021 SCT110 M02/M06 A3011 RMK AO2 SLP200 T10171061
Pressure 30.12 in
Visibility 10.0 miles
Clouds Few 2100 ft
Scattered Clouds 11000 ft
Windchill 29 °F
Dew Point 6 °F
Humidity 38%
Rainfall 0.00 in
Snow Depth Not available.
6:58 AM 4:31 PM
Waning Gibbous, 87% visible
METAR KEVV 151254Z 00000KT 10SM FEW021 SCT110 M02/M06 A3011 RMK AO2 SLP200 T10171061

Get Your Daily Forecast Email!

Thanks for signing up!

Be on the lookout for a verification email in your inbox.

You'll start receiving severe weather alerts in your inbox..

×

10-Day Weather Forecast

Almanac

Astronomy

Dec. 15, 2019 Rise Set
Actual Time
Civil Twilight
Nautical Twilight
Astronomical Twilight
Moon
Length of Visible Light
Length of Day
Tomorrow will be .
, % of the Moon is Illuminated

Today's Extremes

State Highs State Lows

Community

WunderPhotos

Category 6

Welcome to Category 6. This is the collective home for Weather Underground's featured writeups by Dr. Jeff Masters (right), Bob Henson (left), Chris Burt, and other regular contributors.

Nearby

Air Quality

  Air Quality AQ Index Pollutant
Not available.

Snow Depth

Station Depth Elevation

Earthquake Activity

City Distance Mag. Time & Date
Minimum magnitude displayed is 2.5.

Coastal Water Temperatures

Place Temperature

Stations

Nearby Weather Stations

Station Location Temp. Windchill Dew Point Humidity Wind Precip. Elev Updated Type
                   

Watches & Warnings

Winter Weather Advisory
Issued: 4:20 AM CST Dec. 15, 2019 – National Weather Service

... Winter Weather Advisory in effect from noon today to 11 PM CST
this evening...

* what... snow is expected this afternoon. It will transition to
rain in the evening, and a brief period of freezing rain will be
possible. Total snow accumulations of up to two inches are
expected, possibly followed by a very light glaze.

* Where... all of southwest Indiana and White County in southern
Illinois.

* When... from noon today to 11 PM CST this evening.

* Impacts... plan on slippery Road conditions primarily on bridges
and overpasses.

* Additional details... slippery Road conditions may briefly become
more widespread when and where the heaviest snow falls.

Precautionary/preparedness actions...

Slow down and use caution while traveling.



Drs